Time;durP1;ratioP1;P1;durP2;ratioP2;P2;SDS_P1;SDS_P2;PMS_P1;PMS_P2;Temp;Humidity;BMP_temperature;BMP_pressure;BME280_temperature;BME280_humidity;BME280_pressure;Samples;Min_cycle;Max_cycle;Signal;HPM_P1;HPM_P2
2022/11/15 00:00:51;;;;;;;144.93;134.88;;;;;;;;;;10190865;28;20073;-65
2022/11/15 00:05:47;;;;;;;149.20;139.38;;;;;;;;;;10191050;28;20048;-65
2022/11/15 00:10:53;;;;;;;146.30;136.68;;;;;;;;;;10193775;28;20056;-65
2022/11/15 00:15:50;;;;;;;146.32;136.57;;;;;;;;;;10191805;28;20041;-66
2022/11/15 00:20:46;;;;;;;148.48;138.48;;;;;;;;;;10188502;28;20042;-65
2022/11/15 00:25:42;;;;;;;145.23;135.63;;;;;;;;;;10188961;28;20488;-65
2022/11/15 00:30:38;;;;;;;149.02;138.65;;;;;;;;;;10191710;28;20046;-65
2022/11/15 00:35:35;;;;;;;151.77;141.55;;;;;;;;;;10192893;28;20137;-65
2022/11/15 00:40:31;;;;;;;148.13;138.18;;;;;;;;;;10192315;28;20045;-65
2022/11/15 00:45:27;;;;;;;145.65;135.60;;;;;;;;;;10191884;28;20042;-65
2022/11/15 00:50:23;;;;;;;148.23;138.23;;;;;;;;;;10190940;28;20042;-65
2022/11/15 00:55:20;;;;;;;145.13;135.15;;;;;;;;;;10191573;28;20042;-65
2022/11/15 01:00:16;;;;;;;147.07;137.38;;;;;;;;;;10192195;28;20082;-65
2022/11/15 01:05:12;;;;;;;149.73;139.73;;;;;;;;;;10190666;28;20137;-66
2022/11/15 01:10:08;;;;;;;153.95;143.80;;;;;;;;;;10191524;28;20531;-66
2022/11/15 01:15:05;;;;;;;148.07;138.27;;;;;;;;;;10189551;28;20702;-65
2022/11/15 01:20:01;;;;;;;148.73;138.88;;;;;;;;;;10187917;28;20050;-66
2022/11/15 01:24:58;;;;;;;145.73;136.10;;;;;;;;;;10189470;28;20053;-65
2022/11/15 01:29:54;;;;;;;148.93;138.95;;;;;;;;;;10198406;28;20053;-65
2022/11/15 01:34:50;;;;;;;141.13;131.82;;;;;;;;;;10198377;28;20533;-66
2022/11/15 01:39:46;;;;;;;139.68;130.65;;;;;;;;;;10194897;28;20042;-65
2022/11/15 01:44:52;;;;;;;140.80;131.68;;;;;;;;;;10198792;28;20046;-65
2022/11/15 01:49:57;;;;;;;144.45;134.93;;;;;;;;;;10192973;28;20136;-65
2022/11/15 01:54:56;;;;;;;144.98;135.25;;;;;;;;;;10196136;28;20521;-66
2022/11/15 01:59:52;;;;;;;142.93;133.75;;;;;;;;;;10196086;28;20049;-65
2022/11/15 02:04:49;;;;;;;143.90;134.40;;;;;;;;;;10193860;28;20754;-65
2022/11/15 02:09:45;;;;;;;146.48;136.75;;;;;;;;;;10195868;28;20042;-65
2022/11/15 02:14:43;;;;;;;141.13;132.18;;;;;;;;;;10195515;28;20053;-65
2022/11/15 02:19:47;;;;;;;147.52;138.18;;;;;;;;;;10196825;28;20081;-65
2022/11/15 02:24:43;;;;;;;147.82;138.20;;;;;;;;;;10196039;28;20046;-65
2022/11/15 02:29:40;;;;;;;146.07;136.80;;;;;;;;;;10196048;28;20050;-65
2022/11/15 02:34:45;;;;;;;145.63;135.93;;;;;;;;;;10193723;28;20144;-65
2022/11/15 02:39:44;;;;;;;143.13;133.65;;;;;;;;;;10194735;28;20057;-65
2022/11/15 02:44:43;;;;;;;148.40;139.00;;;;;;;;;;10194152;28;20042;-65
2022/11/15 02:49:59;;;;;;;144.85;135.45;;;;;;;;;;10206122;28;20044;-66
2022/11/15 02:55:00;;;;;;;141.70;132.68;;;;;;;;;;10188398;28;20121;-65
2022/11/15 02:59:59;;;;;;;142.48;133.10;;;;;;;;;;10195039;28;20572;-65
2022/11/15 03:04:57;;;;;;;143.88;134.57;;;;;;;;;;10195471;28;20049;-65
2022/11/15 03:10:11;;;;;;;145.43;135.95;;;;;;;;;;10192906;28;20525;-65
2022/11/15 03:15:23;;;;;;;142.48;133.50;;;;;;;;;;10190767;28;20447;-65
2022/11/15 03:20:19;;;;;;;143.32;133.90;;;;;;;;;;10195401;28;20053;-65
2022/11/15 03:25:20;;;;;;;140.38;131.48;;;;;;;;;;10194291;28;20038;-65
2022/11/15 03:30:17;;;;;;;140.77;131.77;;;;;;;;;;10193541;28;20134;-65
2022/11/15 03:35:15;;;;;;;145.38;136.00;;;;;;;;;;10194522;28;20053;-65
2022/11/15 03:40:11;;;;;;;151.02;141.23;;;;;;;;;;10193731;28;20462;-66
2022/11/15 03:45:10;;;;;;;145.73;136.25;;;;;;;;;;10192198;28;20136;-66
2022/11/15 03:50:12;;;;;;;148.68;139.18;;;;;;;;;;10191016;28;20042;-65
2022/11/15 03:55:11;;;;;;;145.63;136.48;;;;;;;;;;10193885;28;20052;-66
2022/11/15 04:00:07;;;;;;;150.60;141.10;;;;;;;;;;10193589;28;20092;-65
2022/11/15 04:05:04;;;;;;;147.30;137.88;;;;;;;;;;10192853;28;20089;-65
2022/11/15 04:10:03;;;;;;;144.68;135.65;;;;;;;;;;10193040;28;20125;-65
2022/11/15 04:15:07;;;;;;;148.68;139.27;;;;;;;;;;10191963;28;20115;-65
2022/11/15 04:25:19;;;;;;;151.27;141.70;;;;;;;;;;10187413;28;20061;-65
2022/11/15 04:30:19;;;;;;;151.23;141.93;;;;;;;;;;10192676;28;20042;-66
2022/11/15 04:35:16;;;;;;;153.07;143.35;;;;;;;;;;10190439;28;20092;-65
2022/11/15 04:40:12;;;;;;;152.50;142.43;;;;;;;;;;10191823;28;20046;-66
2022/11/15 04:45:08;;;;;;;148.63;139.48;;;;;;;;;;10185084;28;20771;-66
2022/11/15 04:50:05;;;;;;;152.75;143.20;;;;;;;;;;10192111;28;20157;-66
2022/11/15 04:55:01;;;;;;;150.93;141.18;;;;;;;;;;10191241;28;20054;-68
2022/11/15 05:00:04;;;;;;;148.43;138.97;;;;;;;;;;10189920;28;20042;-67
2022/11/15 05:05:00;;;;;;;147.55;138.10;;;;;;;;;;10190743;28;20041;-67
2022/11/15 05:09:57;;;;;;;144.55;134.80;;;;;;;;;;10190530;28;20042;-66
2022/11/15 05:14:53;;;;;;;147.02;137.60;;;;;;;;;;10185888;28;20072;-67
2022/11/15 05:19:49;;;;;;;137.65;128.50;;;;;;;;;;10190655;28;20544;-67
2022/11/15 05:24:45;;;;;;;150.35;139.82;;;;;;;;;;10191338;28;20038;-67
2022/11/15 05:29:41;;;;;;;145.45;135.63;;;;;;;;;;10190147;28;20049;-66
2022/11/15 05:34:38;;;;;;;142.68;133.45;;;;;;;;;;10187203;28;20053;-67
2022/11/15 05:39:34;;;;;;;145.65;136.05;;;;;;;;;;10188732;28;20527;-67
2022/11/15 05:44:31;;;;;;;142.82;132.98;;;;;;;;;;10188377;28;20040;-67
2022/11/15 05:49:31;;;;;;;141.45;132.40;;;;;;;;;;10190220;28;20050;-66
2022/11/15 05:54:28;;;;;;;141.43;132.45;;;;;;;;;;10185969;28;20260;-66
2022/11/15 05:59:24;;;;;;;141.23;131.95;;;;;;;;;;10189315;28;20053;-66
2022/11/15 06:04:20;;;;;;;142.85;133.45;;;;;;;;;;10190341;28;20129;-66
2022/11/15 06:09:16;;;;;;;141.40;132.18;;;;;;;;;;10189941;28;20053;-67
2022/11/15 06:14:13;;;;;;;136.40;127.47;;;;;;;;;;10196521;28;20531;-66
2022/11/15 06:19:09;;;;;;;138.52;129.60;;;;;;;;;;10198213;28;20057;-66
2022/11/15 06:24:05;;;;;;;134.20;125.72;;;;;;;;;;10196816;28;20049;-66
2022/11/15 06:29:03;;;;;;;129.45;120.93;;;;;;;;;;10196422;28;20571;-66
2022/11/15 06:33:59;;;;;;;131.77;123.47;;;;;;;;;;10196564;28;20042;-66
2022/11/15 06:38:56;;;;;;;131.52;123.18;;;;;;;;;;10196254;28;20080;-66
2022/11/15 06:43:52;;;;;;;129.05;120.60;;;;;;;;;;10195588;28;20050;-66
2022/11/15 06:48:50;;;;;;;122.78;114.70;;;;;;;;;;10193435;28;20045;-66
2022/11/15 06:53:46;;;;;;;128.07;119.95;;;;;;;;;;10194959;28;20145;-66
2022/11/15 06:58:43;;;;;;;126.30;117.80;;;;;;;;;;10193262;28;20041;-66
2022/11/15 07:03:40;;;;;;;127.00;118.70;;;;;;;;;;10191847;28;20050;-66
2022/11/15 07:08:36;;;;;;;123.80;115.38;;;;;;;;;;10195576;28;20045;-67
2022/11/15 07:13:33;;;;;;;122.13;113.82;;;;;;;;;;10194343;28;20129;-66
2022/11/15 07:18:30;;;;;;;121.88;113.88;;;;;;;;;;10195330;28;20547;-66
2022/11/15 07:23:27;;;;;;;126.43;117.93;;;;;;;;;;10189587;28;20415;-66
2022/11/15 07:28:24;;;;;;;122.85;114.78;;;;;;;;;;10194078;28;20038;-66
2022/11/15 07:33:21;;;;;;;124.22;116.13;;;;;;;;;;10194687;28;20056;-66
2022/11/15 07:38:20;;;;;;;127.13;118.47;;;;;;;;;;10193219;28;20133;-67
2022/11/15 07:43:16;;;;;;;129.82;121.22;;;;;;;;;;10194111;28;20551;-66
2022/11/15 07:48:12;;;;;;;129.30;120.80;;;;;;;;;;10192200;28;20042;-66
2022/11/15 07:53:09;;;;;;;123.85;114.95;;;;;;;;;;10194000;28;20163;-67
2022/11/15 07:58:06;;;;;;;125.97;117.80;;;;;;;;;;10192646;28;20037;-67
2022/11/15 08:03:04;;;;;;;126.30;118.10;;;;;;;;;;10192634;28;20056;-66
2022/11/15 08:08:00;;;;;;;118.47;110.68;;;;;;;;;;10192544;28;20061;-67
2022/11/15 08:12:57;;;;;;;123.40;115.22;;;;;;;;;;10193017;28;20049;-66
2022/11/15 08:17:55;;;;;;;127.90;119.70;;;;;;;;;;10192480;28;20054;-66
2022/11/15 08:22:52;;;;;;;119.32;111.72;;;;;;;;;;10192428;28;20053;-67
2022/11/15 08:27:50;;;;;;;116.55;108.80;;;;;;;;;;10192254;28;20083;-66
2022/11/15 08:32:48;;;;;;;119.00;111.40;;;;;;;;;;10189337;28;20133;-66
2022/11/15 08:37:44;;;;;;;116.18;108.55;;;;;;;;;;10190838;28;21799;-67
2022/11/15 08:42:40;;;;;;;117.25;109.82;;;;;;;;;;10192531;28;20053;-67
2022/11/15 08:47:36;;;;;;;114.85;107.50;;;;;;;;;;10191872;28;20121;-67
2022/11/15 08:52:33;;;;;;;113.43;106.28;;;;;;;;;;10192597;28;20134;-66
2022/11/15 08:57:32;;;;;;;113.00;105.78;;;;;;;;;;10191131;28;20498;-67
2022/11/15 09:02:28;;;;;;;104.90;98.15;;;;;;;;;;10188991;28;20056;-67
2022/11/15 09:07:25;;;;;;;106.20;99.38;;;;;;;;;;10191600;28;20044;-67
2022/11/15 09:12:21;;;;;;;102.03;95.22;;;;;;;;;;10191237;28;20045;-67
2022/11/15 09:17:17;;;;;;;102.88;96.15;;;;;;;;;;10191211;28;20504;-67
2022/11/15 09:22:20;;;;;;;102.38;95.72;;;;;;;;;;10190897;28;20045;-66
2022/11/15 09:27:16;;;;;;;106.47;99.45;;;;;;;;;;10191301;28;20113;-67
2022/11/15 09:32:30;;;;;;;100.00;93.25;;;;;;;;;;10189044;28;20116;-67
2022/11/15 09:37:34;;;;;;;102.93;96.43;;;;;;;;;;10190230;28;20161;-66
2022/11/15 09:42:48;;;;;;;93.82;87.97;;;;;;;;;;10188321;28;20038;-67
2022/11/15 09:48:00;;;;;;;91.07;85.00;;;;;;;;;;10188980;28;20042;-66
2022/11/15 09:52:56;;;;;;;82.72;77.07;;;;;;;;;;10190557;28;20042;-66
2022/11/15 09:58:18;;;;;;;80.97;75.57;;;;;;;;;;10198257;28;20077;-66
2022/11/15 10:03:17;;;;;;;77.88;72.65;;;;;;;;;;10195420;28;20046;-66
2022/11/15 10:08:20;;;;;;;76.18;71.10;;;;;;;;;;10198369;28;20046;-66
2022/11/15 10:13:22;;;;;;;74.40;69.32;;;;;;;;;;10196886;28;20120;-66
2022/11/15 10:18:34;;;;;;;70.87;66.00;;;;;;;;;;10196808;28;20137;-66
2022/11/15 10:23:31;;;;;;;65.38;60.63;;;;;;;;;;10193432;28;20048;-66
2022/11/15 10:28:29;;;;;;;73.40;68.28;;;;;;;;;;10196547;28;20052;-66
2022/11/15 10:33:26;;;;;;;70.05;64.97;;;;;;;;;;10196887;28;20096;-66
2022/11/15 10:38:22;;;;;;;70.72;65.57;;;;;;;;;;10188301;28;20664;-67
2022/11/15 10:43:19;;;;;;;71.53;66.85;;;;;;;;;;10197034;28;20132;-66
2022/11/15 10:48:18;;;;;;;71.95;67.32;;;;;;;;;;10187857;28;20426;-66
2022/11/15 10:53:21;;;;;;;68.22;63.72;;;;;;;;;;10195073;28;20050;-66
2022/11/15 10:58:32;;;;;;;74.35;69.78;;;;;;;;;;10194820;28;20052;-67
2022/11/15 11:03:33;;;;;;;68.57;64.07;;;;;;;;;;10194225;28;20042;-66
2022/11/15 11:08:29;;;;;;;76.63;71.72;;;;;;;;;;10195514;28;20673;-67
2022/11/15 11:13:27;;;;;;;80.15;75.07;;;;;;;;;;10194982;28;20038;-66
2022/11/15 11:18:28;;;;;;;76.10;71.35;;;;;;;;;;10194380;28;20528;-66
2022/11/15 11:23:59;;;;;;;76.00;71.30;;;;;;;;;;10195051;28;20054;-66
2022/11/15 11:28:56;;;;;;;75.95;71.30;;;;;;;;;;10119994;28;20033;-66
2022/11/15 11:33:55;;;;;;;72.43;67.72;;;;;;;;;;10192422;28;20053;-66
2022/11/15 11:39:16;;;;;;;76.32;71.70;;;;;;;;;;10194107;28;20041;-66
2022/11/15 11:44:12;;;;;;;74.32;69.72;;;;;;;;;;10190583;28;20503;-67
2022/11/15 11:49:10;;;;;;;78.28;73.65;;;;;;;;;;10194062;28;20042;-66
2022/11/15 11:54:17;;;;;;;71.40;66.90;;;;;;;;;;10193635;28;20045;-66
2022/11/15 11:59:19;;;;;;;72.78;68.15;;;;;;;;;;10190506;28;20053;-66
2022/11/15 12:04:19;;;;;;;65.57;61.25;;;;;;;;;;10192594;28;20052;-66
2022/11/15 12:09:17;;;;;;;64.82;60.03;;;;;;;;;;10191185;28;20411;-67
2022/11/15 12:14:26;;;;;;;65.00;60.95;;;;;;;;;;10193289;28;20129;-67
2022/11/15 12:19:22;;;;;;;63.97;59.95;;;;;;;;;;10191891;28;20136;-66
2022/11/15 12:24:25;;;;;;;60.03;56.10;;;;;;;;;;10192905;28;20085;-66
2022/11/15 12:29:40;;;;;;;67.38;62.90;;;;;;;;;;10191768;28;20034;-67
2022/11/15 12:34:40;;;;;;;57.33;53.80;;;;;;;;;;10192201;28;20145;-67
2022/11/15 12:39:54;;;;;;;54.25;50.45;;;;;;;;;;10191402;28;20049;-67
2022/11/15 12:44:59;;;;;;;47.30;44.03;;;;;;;;;;10184651;28;20042;-67
2022/11/15 12:49:55;;;;;;;41.10;38.35;;;;;;;;;;10188625;28;20049;-65
2022/11/15 12:54:53;;;;;;;36.92;33.92;;;;;;;;;;10185177;28;20129;-66
2022/11/15 12:59:49;;;;;;;37.42;34.83;;;;;;;;;;10191862;28;20387;-65
2022/11/15 13:04:45;;;;;;;37.33;34.55;;;;;;;;;;10191659;28;20041;-65
2022/11/15 13:09:42;;;;;;;35.72;32.83;;;;;;;;;;10190622;28;20153;-65
2022/11/15 13:14:39;;;;;;;38.08;35.47;;;;;;;;;;10191756;28;20050;-65
2022/11/15 13:19:36;;;;;;;36.33;33.72;;;;;;;;;;10190846;28;20088;-65
2022/11/15 13:24:32;;;;;;;38.70;35.78;;;;;;;;;;10198709;28;20415;-65
2022/11/15 13:29:28;;;;;;;39.03;36.30;;;;;;;;;;10198172;28;20155;-65
2022/11/15 13:34:27;;;;;;;39.35;36.75;;;;;;;;;;10198914;28;20494;-65
2022/11/15 13:39:43;;;;;;;40.33;37.28;;;;;;;;;;10197709;28;20052;-65
2022/11/15 13:44:53;;;;;;;38.13;35.40;;;;;;;;;;10198513;28;20046;-65
2022/11/15 13:49:49;;;;;;;43.40;40.50;;;;;;;;;;10198854;28;20041;-65
2022/11/15 13:54:58;;;;;;;42.15;39.17;;;;;;;;;;10197572;28;20129;-65
2022/11/15 13:59:55;;;;;;;43.42;40.47;;;;;;;;;;10195345;28;20045;-65
2022/11/15 14:05:05;;;;;;;40.45;37.53;;;;;;;;;;10194929;28;20054;-65
2022/11/15 14:10:17;;;;;;;33.72;31.17;;;;;;;;;;10196453;28;20426;-66
2022/11/15 14:15:28;;;;;;;34.53;32.03;;;;;;;;;;10195348;28;20057;-65
2022/11/15 14:20:30;;;;;;;34.33;31.58;;;;;;;;;;10194197;28;20072;-65
2022/11/15 14:25:27;;;;;;;31.80;29.35;;;;;;;;;;10196895;28;20044;-65
2022/11/15 14:30:24;;;;;;;32.28;29.60;;;;;;;;;;10197327;28;20507;-65
2022/11/15 14:35:22;;;;;;;35.63;33.00;;;;;;;;;;10190412;28;20069;-64
2022/11/15 14:40:20;;;;;;;35.60;33.20;;;;;;;;;;10196325;28;20137;-65
2022/11/15 14:45:17;;;;;;;40.35;37.33;;;;;;;;;;10196718;28;20042;-65
2022/11/15 14:50:18;;;;;;;43.80;40.75;;;;;;;;;;10196850;28;20092;-65
2022/11/15 14:55:24;;;;;;;49.13;45.70;;;;;;;;;;10196302;28;20049;-65
2022/11/15 15:00:21;;;;;;;52.85;49.08;;;;;;;;;;10195350;28;20057;-65
2022/11/15 15:05:17;;;;;;;57.47;53.67;;;;;;;;;;10194585;28;20128;-64
2022/11/15 15:10:14;;;;;;;59.88;56.05;;;;;;;;;;10195590;28;20133;-64
2022/11/15 15:15:34;;;;;;;61.42;57.58;;;;;;;;;;10194609;28;20139;-65
2022/11/15 15:20:31;;;;;;;63.28;59.28;;;;;;;;;;10192248;28;20038;-67
2022/11/15 15:25:29;;;;;;;67.68;63.38;;;;;;;;;;10194593;28;20050;-67
2022/11/15 15:30:26;;;;;;;75.55;70.95;;;;;;;;;;10193671;28;20096;-64
2022/11/15 15:35:23;;;;;;;81.82;76.80;;;;;;;;;;10194013;28;20050;-64
2022/11/15 15:40:21;;;;;;;88.97;83.63;;;;;;;;;;10194525;28;20061;-64
2022/11/15 15:45:18;;;;;;;93.07;87.38;;;;;;;;;;10188469;28;20042;-64
2022/11/15 15:50:14;;;;;;;87.88;82.63;;;;;;;;;;10193570;28;20132;-67
2022/11/15 15:55:10;;;;;;;98.97;93.10;;;;;;;;;;10191808;28;20050;-67
2022/11/15 16:00:07;;;;;;;97.25;91.35;;;;;;;;;;10192911;28;20053;-65
2022/11/15 16:05:03;;;;;;;101.05;94.88;;;;;;;;;;10189933;28;20538;-65
2022/11/15 16:10:00;;;;;;;95.75;90.05;;;;;;;;;;10192197;28;20065;-65
2022/11/15 16:14:56;;;;;;;103.93;97.63;;;;;;;;;;10193005;28;20085;-65
2022/11/15 16:19:52;;;;;;;99.45;93.50;;;;;;;;;;10192021;28;20076;-65
2022/11/15 16:24:49;;;;;;;104.70;98.38;;;;;;;;;;10192326;28;20049;-65
2022/11/15 16:29:46;;;;;;;107.13;100.88;;;;;;;;;;10191587;28;20496;-65
2022/11/15 16:34:42;;;;;;;113.30;106.55;;;;;;;;;;10191413;28;20046;-65
2022/11/15 16:39:44;;;;;;;104.40;98.10;;;;;;;;;;10192131;28;20053;-67
2022/11/15 16:44:40;;;;;;;105.85;99.55;;;;;;;;;;10189566;28;20042;-67
2022/11/15 16:49:36;;;;;;;111.47;104.25;;;;;;;;;;10190196;28;20141;-67
2022/11/15 16:54:33;;;;;;;103.07;96.80;;;;;;;;;;10189689;28;20141;-66
2022/11/15 16:59:31;;;;;;;104.10;97.82;;;;;;;;;;10185733;28;20069;-66
2022/11/15 17:04:33;;;;;;;107.40;100.78;;;;;;;;;;10188682;28;20559;-66
2022/11/15 17:09:29;;;;;;;105.80;99.30;;;;;;;;;;10190674;28;20049;-66
2022/11/15 17:14:26;;;;;;;108.40;101.82;;;;;;;;;;10191782;28;20081;-67
2022/11/15 17:19:22;;;;;;;109.63;103.03;;;;;;;;;;10190699;28;20136;-66
2022/11/15 17:24:19;;;;;;;111.55;104.50;;;;;;;;;;10191493;28;20046;-66
2022/11/15 17:29:17;;;;;;;113.15;106.43;;;;;;;;;;10190016;28;20476;-67
2022/11/15 17:34:13;;;;;;;112.60;105.50;;;;;;;;;;10190731;28;20046;-66
2022/11/15 17:39:09;;;;;;;116.45;109.10;;;;;;;;;;10190989;28;20061;-67
2022/11/15 17:44:06;;;;;;;116.00;108.97;;;;;;;;;;10189728;28;20042;-65
2022/11/15 17:49:02;;;;;;;119.15;112.03;;;;;;;;;;10178855;28;20129;-65
2022/11/15 17:53:58;;;;;;;124.18;116.57;;;;;;;;;;10189320;28;20048;-67
2022/11/15 17:58:56;;;;;;;127.20;119.40;;;;;;;;;;10190788;28;20137;-67
2022/11/15 18:03:52;;;;;;;120.50;112.78;;;;;;;;;;10187988;28;20670;-67
2022/11/15 18:08:49;;;;;;;126.88;119.00;;;;;;;;;;10194420;28;20057;-66
2022/11/15 18:13:47;;;;;;;125.53;117.75;;;;;;;;;;10197361;28;20046;-64
2022/11/15 18:18:47;;;;;;;122.73;115.23;;;;;;;;;;10197715;28;20054;-67
2022/11/15 18:23:44;;;;;;;124.40;116.80;;;;;;;;;;10197223;28;20050;-66
2022/11/15 18:28:42;;;;;;;125.07;117.35;;;;;;;;;;10196388;28;20045;-65
2022/11/15 18:33:38;;;;;;;122.32;114.88;;;;;;;;;;10197251;28;20511;-67
2022/11/15 18:38:35;;;;;;;128.57;120.60;;;;;;;;;;10196165;28;20057;-66
2022/11/15 18:43:31;;;;;;;129.05;121.43;;;;;;;;;;10196951;28;20045;-65
2022/11/15 18:48:29;;;;;;;124.47;116.97;;;;;;;;;;10193563;28;20405;-65
2022/11/15 18:53:25;;;;;;;121.78;114.43;;;;;;;;;;10196053;28;20500;-67
2022/11/15 18:58:21;;;;;;;119.47;112.28;;;;;;;;;;10196016;28;20540;-66
2022/11/15 19:03:17;;;;;;;120.77;113.30;;;;;;;;;;10196285;28;20046;-66
2022/11/15 19:08:19;;;;;;;119.30;112.13;;;;;;;;;;10195025;28;20077;-67
2022/11/15 19:13:16;;;;;;;123.32;116.10;;;;;;;;;;10195951;28;20046;-66
2022/11/15 19:18:13;;;;;;;122.53;115.07;;;;;;;;;;10188754;28;20451;-66
2022/11/15 19:23:09;;;;;;;119.15;111.82;;;;;;;;;;10195466;28;20480;-66
2022/11/15 19:28:06;;;;;;;122.63;115.13;;;;;;;;;;10194679;28;20049;-67
2022/11/15 19:33:02;;;;;;;127.78;120.05;;;;;;;;;;10193581;28;20046;-66
2022/11/15 19:37:58;;;;;;;123.38;115.88;;;;;;;;;;10192641;28;20136;-66
2022/11/15 19:42:54;;;;;;;122.45;114.97;;;;;;;;;;10193883;28;20438;-66
2022/11/15 19:47:51;;;;;;;124.10;116.53;;;;;;;;;;10194336;28;20261;-67
2022/11/15 19:52:47;;;;;;;122.15;114.85;;;;;;;;;;10190307;28;20057;-66
2022/11/15 19:57:43;;;;;;;126.30;118.72;;;;;;;;;;10193669;28;20053;-66
2022/11/15 20:02:40;;;;;;;125.60;118.13;;;;;;;;;;10189048;28;20092;-67
2022/11/15 20:07:36;;;;;;;127.65;120.13;;;;;;;;;;10193335;28;20041;-67
2022/11/15 20:12:33;;;;;;;123.93;116.28;;;;;;;;;;10192981;28;20088;-66
2022/11/15 20:17:29;;;;;;;123.43;115.82;;;;;;;;;;10192318;28;20053;-66
2022/11/15 20:22:26;;;;;;;121.57;114.35;;;;;;;;;;10193627;28;20500;-67
2022/11/15 20:27:22;;;;;;;120.70;113.60;;;;;;;;;;10191822;28;20046;-66
2022/11/15 20:32:18;;;;;;;120.68;113.60;;;;;;;;;;10192419;28;20052;-67
2022/11/15 20:37:15;;;;;;;114.85;108.10;;;;;;;;;;10191467;28;20046;-66
2022/11/15 20:42:11;;;;;;;116.22;108.90;;;;;;;;;;10192704;28;20038;-66
2022/11/15 20:47:07;;;;;;;110.18;103.07;;;;;;;;;;10187477;28;20041;-66
2022/11/15 20:52:03;;;;;;;101.78;95.57;;;;;;;;;;10185859;28;20057;-66
2022/11/15 20:57:00;;;;;;;108.47;101.57;;;;;;;;;;10191160;28;20060;-66
2022/11/15 21:01:56;;;;;;;104.00;97.72;;;;;;;;;;10191363;28;20050;-66
2022/11/15 21:06:52;;;;;;;102.68;96.03;;;;;;;;;;10190909;28;20072;-66
2022/11/15 21:17:03;;;;;;;98.65;92.55;;;;;;;;;;10191094;28;20129;-66
2022/11/15 21:22:00;;;;;;;92.20;86.50;;;;;;;;;;10191527;28;20054;-67
2022/11/15 21:26:57;;;;;;;93.82;88.15;;;;;;;;;;10190424;28;20522;-67
2022/11/15 21:31:53;;;;;;;94.63;88.72;;;;;;;;;;10189419;28;20054;-67
2022/11/15 21:36:49;;;;;;;100.20;93.88;;;;;;;;;;10182741;28;20500;-67
2022/11/15 21:41:45;;;;;;;96.13;90.32;;;;;;;;;;10186314;28;20495;-66
2022/11/15 21:46:42;;;;;;;94.90;88.93;;;;;;;;;;10199035;28;20053;-66
2022/11/15 21:51:38;;;;;;;93.47;87.47;;;;;;;;;;10198004;28;20482;-66
2022/11/15 21:56:35;;;;;;;88.97;83.57;;;;;;;;;;10193807;28;20046;-67
2022/11/15 22:06:45;;;;;;;85.40;80.18;;;;;;;;;;10194847;28;20599;-67
2022/11/15 22:11:42;;;;;;;83.35;77.95;;;;;;;;;;10198490;28;20522;-66
2022/11/15 22:16:38;;;;;;;77.30;72.32;;;;;;;;;;10196960;28;20053;-67
2022/11/15 22:21:36;;;;;;;79.43;74.22;;;;;;;;;;10197563;28;20699;-67
2022/11/15 22:26:33;;;;;;;79.47;74.30;;;;;;;;;;10196212;28;20523;-67
2022/11/15 22:31:29;;;;;;;77.13;71.95;;;;;;;;;;10198017;28;20061;-66
2022/11/15 22:36:25;;;;;;;75.75;70.60;;;;;;;;;;10188988;28;20500;-66
2022/11/15 22:41:37;;;;;;;77.43;72.47;;;;;;;;;;10196263;28;20053;-67
2022/11/15 22:46:34;;;;;;;70.05;65.53;;;;;;;;;;10195144;28;20049;-67
2022/11/15 22:51:30;;;;;;;72.88;67.75;;;;;;;;;;10195976;28;20049;-67
2022/11/15 22:56:26;;;;;;;72.93;68.07;;;;;;;;;;10190920;28;20656;-67
2022/11/15 23:01:23;;;;;;;71.47;66.72;;;;;;;;;;10195487;28;20121;-66
2022/11/15 23:06:19;;;;;;;73.70;68.50;;;;;;;;;;10195685;28;20046;-66
2022/11/15 23:16:33;;;;;;;74.38;69.47;;;;;;;;;;10195319;28;20046;-66
2022/11/15 23:26:50;;;;;;;85.07;79.78;;;;;;;;;;10191988;28;20045;-66
2022/11/15 23:37:02;;;;;;;95.13;89.05;;;;;;;;;;10193836;28;20053;-67
2022/11/15 23:41:58;;;;;;;99.85;93.78;;;;;;;;;;10191935;28;20038;-67
2022/11/15 23:47:01;;;;;;;95.65;89.78;;;;;;;;;;10194400;28;20069;-67
2022/11/15 23:51:57;;;;;;;97.93;91.47;;;;;;;;;;10194243;28;20046;-66
2022/11/15 23:56:53;;;;;;;100.13;93.82;;;;;;;;;;10194193;28;20048;-67
